EW8665 Weather Reports


time (UTC)temp
C
wind
direction
speed
KPH
gust
KPH
rain 1hr
cm
rain 24hr
cm
rain mn
cm
humidity
%
barometer
mb
20200226013001 3 243 11.3 24.1 0.05 0.58 0.08 91 1002.1
20200226012501 4 242 9.7 24.1 0.05 0.58 0.08 91 1002.0
20200226012001 4 242 9.7 22.5 0.05 0.58 0.08 91 1002.0
20200226011500 4 242 14.5 37.0 0.05 0.58 0.08 90 1001.8
20200226011001 4 241 24.1 37.0 0.05 0.58 0.08 89 1002.0
20200226010501 5 241 27.4 49.9 0.05 0.56 0.05 87 1002.1
20200226010002 5 236 20.9 49.9 0.05 0.56 0.05 87 1002.5
20200226005501 5 238 14.5 27.4 0.00 0.51 0.00 85 1001.6
20200226005000 5 240 14.5 27.4 0.00 0.51 0.00 85 1001.3
20200226004501 5 239 17.7 33.8 0.00 0.51 0.00 85 1001.3
20200226004000 5 233 19.3 33.8 0.00 0.51 0.00 85 1001.2
20200226003502 5 232 16.1 37.0 0.00 0.51 0.00 86 1001.1
20200226003000 5 230 16.1 37.0 0.00 0.51 0.00 86 1001.0
20200226002501 5 229 16.1 32.2 0.00 0.51 0.00 86 1001.1
20200226002002 5 226 16.1 32.2 0.00 0.51 0.00 87 1000.9
20200226001502 5 223 16.1 29.0 0.00 0.51 0.00 87 1001.1
20200226001001 5 222 16.1 33.8 0.00 0.51 0.00 87 1001.2
20200226000501 5 219 17.7 33.8 0.00 0.51 0.00 87 1001.2
20200226000001 5 213 16.1 33.8 0.00 0.51 0.00 87 1001.2
20200225235500 5 211 14.5 33.8 0.00 0.51 0.00 86 1001.3
20200225235002 6 210 14.5 29.0 0.00 0.51 0.00 85 1001.2
20200225234501 6 211 14.5 29.0 0.00 0.51 0.00 84 1001.3
20200225234001 6 212 16.1 29.0 0.00 0.51 0.00 84 1001.2
20200225233501 6 213 17.7 32.2 0.00 0.51 0.00 83 1001.1
20200225233001 6 214 19.3 37.0 0.00 0.51 0.00 83 1000.9
20200225232500 6 218 24.1 45.1 0.00 0.51 0.00 82 1001.4
20200225232001 7 219 22.5 45.1 0.00 0.51 0.00 82 1001.6
20200225231501 7 221 17.7 27.4 0.00 0.51 0.00 81 1001.2
20200225231001 7 222 19.3 27.4 0.00 0.51 0.00 81 1001.0
20200225230502 7 224 19.3 27.4 0.00 0.51 0.00 81 1001.2
20200225230002 7 232 14.5 27.4 0.00 0.51 0.00 81 1001.3
20200225225501 7 233 16.1 30.6 0.00 0.51 0.51 82 1001.3
20200225225002 7 231 17.7 30.6 0.00 0.51 0.51 78 1001.2
20200225224500 7 235 16.1 25.7 0.00 0.51 0.51 79 1001.3
20200225224001 7 239 16.1 24.1 0.00 0.51 0.51 79 1001.6
20200225223501 7 235 17.7 32.2 0.00 0.51 0.51 79 1001.5
20200225223002 7 235 17.7 32.2 0.00 0.51 0.51 79 1001.7
20200225222500 7 231 14.5 29.0 0.00 0.51 0.51 79 1001.6
20200225222001 7 231 17.7 27.4 0.00 0.51 0.51 80 1001.9
20200225221500 7 230 14.5 27.4 0.00 0.51 0.51 80 1001.8
20200225221001 7 229 11.3 25.7 0.00 0.51 0.51 80 1002.0
20200225220501 7 234 12.9 24.1 0.00 0.51 0.51 80 1001.9
20200225220001 7 237 16.1 33.8 0.00 0.51 0.51 80 1002.1
20200225215501 7 238 17.7 33.8 0.00 0.51 0.51 80 1002.1
20200225215001 7 241 14.5 27.4 0.00 0.51 0.51 81 1002.1
20200225214501 7 237 12.9 24.1 0.00 0.51 0.51 82 1002.3
20200225214002 7 235 14.5 27.4 0.00 0.51 0.51 82 1002.4
20200225213501 7 235 12.9 27.4 0.00 0.51 0.51 82 1002.3
20200225213001 7 238 11.3 20.9 0.00 0.51 0.51 82 1002.0
20200225212501 7 238 12.9 25.7 0.00 0.51 0.51 82 1002.4
20200225212002 7 240 12.9 25.7 0.00 0.51 0.51 83 1002.4
20200225211501 7 240 14.5 32.2 0.00 0.51 0.51 83 1002.5
20200225211001 7 240 14.5 32.2 0.00 0.51 0.51 83 1002.4
20200225210501 7 236 11.3 19.3 0.00 0.51 0.51 89 1002.6
20200225210002 7 233 9.7 19.3 0.00 0.51 0.51 89 1002.5
20200225205500 7 233 9.7 17.7 0.00 0.51 0.51 83 1002.5
20200225205001 7 232 8.0 19.3 0.00 0.51 0.51 83 1002.5
20200225204501 7 235 8.0 19.3 0.00 0.51 0.51 83 1002.6
20200225204001 7 235 9.7 17.7 0.00 0.51 0.51 83 1002.8
20200225203502 7 235 11.3 20.9 0.00 0.51 0.51 83 1002.9
20200225203000 7 234 9.7 20.9 0.00 0.51 0.51 84 1002.7
20200225202501 7 232 9.7 20.9 0.00 0.51 0.51 90 1002.5
20200225202001 7 231 9.7 20.9 0.00 0.51 0.51 90 1002.6
20200225201501 7 231 8.0 17.7 0.00 0.51 0.51 91 1002.8
20200225201001 7 228 8.0 17.7 0.00 0.51 0.51 90 1002.8
20200225200501 7 225 9.7 19.3 0.00 0.51 0.51 90 1002.8
20200225200001 7 219 9.7 19.3 0.00 0.51 0.51 90 1002.8
20200225195501 7 217 9.7 20.9 0.00 0.51 0.51 90 1002.9
20200225195001 7 217 11.3 20.9 0.00 0.51 0.51 90 1002.9
20200225194501 7 217 9.7 17.7 0.00 0.51 0.51 90 1003.0
20200225194002 7 218 9.7 19.3 0.00 0.51 0.51 90 1002.9
20200225193501 7 221 11.3 24.1 0.00 0.51 0.51 91 1003.0
20200225193001 7 219 12.9 25.7 0.00 0.51 0.51 92 1003.0
20200225192502 7 222 11.3 25.7 0.00 0.51 0.51 92 1003.3
20200225192001 7 222 9.7 19.3 0.00 0.51 0.51 93 1002.9
20200225191501 7 223 11.3 19.3 0.00 0.51 0.51 94 1002.8
20200225191001 7 226 11.3 17.7 0.00 0.51 0.51 95 1003.1
20200225190501 7 230 9.7 12.9 0.00 0.51 0.51 95 1003.5
20200225190000 7 239 8.0 14.5 0.03 0.51 0.51 95 1003.5
20200225185501 7 244 8.0 17.7 0.13 0.51 0.51 95 1003.6
20200225185001 7 251 8.0 17.7 0.28 0.51 0.51 96 1003.7
20200225184501 7 259 6.4 19.3 0.38 0.51 0.51 96 1003.8
20200225184001 7 257 6.4 19.3 0.38 0.51 0.51 96 1003.7
20200225183501 7 256 8.0 17.7 0.38 0.51 0.51 96 1003.7
20200225183001 7 254 6.4 17.7 0.38 0.51 0.51 96 1003.9
20200225182502 6 253 4.8 12.9 0.38 0.51 0.51 96 1004.1
20200225182001 6 253 6.4 12.9 0.38 0.51 0.51 95 1003.9
20200225181501 6 251 8.0 12.9 0.38 0.51 0.51 94 1004.1
20200225181001 6 249 9.7 22.5 0.38 0.51 0.51 92 1004.4
20200225180501 7 247 16.1 40.2 0.38 0.51 0.51 91 1004.5
20200225180001 7 242 19.3 43.5 0.36 0.48 0.48 89 1004.4
20200225175501 7 236 16.1 43.5 0.25 0.38 0.38 81 1004.4
20200225175002 8 227 9.7 29.0 0.10 0.23 0.23 79 1004.5
20200225174501 8 228 9.7 19.3 0.00 0.13 0.13 79 1004.2
20200225174001 8 231 11.3 20.9 0.00 0.13 0.13 79 1004.2
20200225173501 8 228 11.3 20.9 0.00 0.13 0.13 79 1004.6
20200225173001 8 226 11.3 19.3 0.00 0.13 0.13 79 1004.5
20200225172501 8 222 11.3 22.5 0.00 0.13 0.13 79 1004.4
20200225172001 8 223 14.5 25.7 0.00 0.13 0.13 79 1004.3
20200225171501 8 225 14.5 25.7 0.00 0.13 0.13 79 1004.3
20200225171001 8 227 9.7 19.3 0.00 0.13 0.13 79 1004.6
20200225170501 8 227 11.3 27.4 0.00 0.13 0.13 80 1004.6
20200225170002 8 233 14.5 38.6 0.00 0.13 0.13 80 1004.6
20200225165501 8 234 16.1 38.6 0.00 0.13 0.13 80 1004.7
20200225165001 8 238 16.1 27.4 0.00 0.13 0.13 81 1004.9
20200225164501 8 237 16.1 27.4 0.00 0.13 0.13 81 1004.5
20200225164001 9 234 19.3 27.4 0.00 0.13 0.13 81 1004.3
20200225163503 9 236 17.7 27.4 0.00 0.13 0.13 81 1004.5
20200225163001 9 239 16.1 25.7 0.00 0.13 0.13 82 1004.5
20200225162501 9 244 16.1 25.7 0.00 0.13 0.13 82 1004.2
20200225162001 9 245 14.5 24.1 0.00 0.13 0.13 82 1004.3
20200225161501 9 242 14.5 27.4 0.00 0.13 0.13 83 1004.4
20200225161001 9 241 14.5 27.4 0.00 0.13 0.13 83 1004.2
20200225160501 9 246 14.5 24.1 0.00 0.13 0.13 83 1004.4
20200225160001 9 247 12.9 20.9 0.00 0.13 0.13 83 1004.1
20200225155501 9 248 11.3 20.9 0.00 0.13 0.13 83 1004.3
20200225155002 9 245 9.7 17.7 0.00 0.13 0.13 84 1004.4
20200225154501 9 242 8.0 16.1 0.00 0.13 0.13 84 1004.3
20200225154001 9 241 9.7 22.5 0.03 0.13 0.13 84 1004.4
20200225153501 9 239 8.0 22.5 0.03 0.13 0.13 84 1004.7
20200225153001 9 241 6.4 22.5 0.03 0.13 0.13 85 1004.7
20200225152501 9 243 6.4 12.9 0.03 0.13 0.13 86 1005.0
20200225152001 9 241 6.4 11.3 0.03 0.13 0.13 86 1005.0
20200225151501 9 242 9.7 17.7 0.03 0.13 0.13 87 1005.0
20200225151002 8 241 11.3 17.7 0.03 0.13 0.13 88 1005.2
20200225150502 8 238 9.7 14.5 0.03 0.13 0.13 89 1005.2
20200225150002 8 233 9.7 17.7 0.03 0.13 0.13 89 1005.5
20200225145501 8 235 11.3 17.7 0.03 0.13 0.13 89 1005.4
20200225145003 8 232 9.7 17.7 0.03 0.13 0.13 89 1005.6
20200225144501 8 235 9.7 22.5 0.03 0.13 0.13 89 1005.7
20200225144001 8 235 9.7 22.5 0.03 0.10 0.10 89 1005.8
20200225143502 8 232 6.4 17.7 0.03 0.10 0.10 90 1005.7
20200225143002 8 228 9.7 20.9 0.03 0.10 0.10 90 1005.8
20200225142501 8 229 11.3 20.9 0.03 0.10 0.10 90 1005.7
20200225142001 8 230 9.7 17.7 0.03 0.10 0.10 90 1005.9
20200225141502 8 231 9.7 16.1 0.03 0.10 0.10 90 1005.8
20200225141001 8 231 8.0 16.1 0.00 0.10 0.10 90 1005.8
20200225140502 8 228 9.7 17.7 0.00 0.10 0.10 90 1005.8
20200225140002 8 221 11.3 19.3 0.00 0.10 0.10 90 1006.0
20200225135501 8 216 11.3 20.9 0.03 0.10 0.10 90 1005.8
20200225135002 8 216 9.7 20.9 0.03 0.10 0.10 89 1005.8
20200225134501 8 212 12.9 24.1 0.00 0.10 0.10 89 1005.8
20200225134001 8 212 12.9 24.1 0.03 0.10 0.10 88 1005.7
20200225133502 8 212 11.3 25.7 0.03 0.10 0.10 88 1005.7
20200225133002 8 212 9.7 25.7 0.03 0.10 0.10 88 1005.7
20200225132501 8 212 8.0 17.7 0.03 0.10 0.10 88 1005.8
20200225132003 8 211 8.0 17.7 0.05 0.10 0.10 88 1005.8
20200225131501 8 209 9.7 22.5 0.05 0.10 0.10 88 1005.6
20200225131002 8 208 11.3 22.5 0.05 0.10 0.10 88 1006.1
20200225130502 8 210 11.3 22.5 0.05 0.10 0.10 88 1006.0
20200225130001 8 216 11.3 22.5 0.05 0.10 0.10 88 1006.1
20200225125501 8 221 11.3 19.3 0.03 0.08 0.08 88 1006.1
20200225125003 8 221 11.3 17.7 0.03 0.08 0.08 87 1006.3
20200225124501 8 222 9.7 17.7 0.03 0.08 0.08 87 1006.4
20200225124001 8 225 11.3 19.3 0.03 0.08 0.08 86 1006.5
20200225123502 8 229 11.3 22.5 0.03 0.08 0.08 85 1006.5
20200225123002 8 230 9.7 24.1 0.00 0.05 0.05 84 1006.6
20200225122501 8 231 9.7 24.1 0.00 0.05 0.05 83 1006.7
20200225122001 8 234 9.7 17.7 0.00 0.05 0.05 82 1006.8
20200225121502 8 231 8.0 17.7 0.00 0.05 0.05 82 1006.9
20200225121001 8 235 9.7 24.1 0.00 0.05 0.05 82 1007.0
20200225120502 8 239 11.3 24.1 0.00 0.05 0.05 82 1007.1
20200225120001 8 247 8.0 20.9 0.00 0.05 0.05 82 1007.1
20200225115501 8 245 6.4 14.5 0.00 0.05 0.05 82 1007.1
20200225115001 8 243 6.4 14.5 0.00 0.05 0.05 82 1007.3
20200225114501 8 243 8.0 17.7 0.00 0.05 0.05 82 1007.3
20200225114002 8 235 8.0 17.7 0.00 0.05 0.05 82 1007.3
20200225113501 8 233 8.0 16.1 0.00 0.05 0.05 82 1007.4
20200225113002 8 236 12.9 30.6 0.00 0.05 0.05 82 1007.6
20200225112502 8 232 14.5 30.6 0.00 0.05 0.05 82 1007.6
20200225112001 8 234 11.3 30.6 0.00 0.05 0.05 82 1007.8
20200225111502 8 242 9.7 22.5 0.00 0.05 0.05 83 1007.6
20200225111002 8 242 9.7 22.5 0.00 0.05 0.05 83 1007.8
20200225110501 8 238 9.7 14.5 0.00 0.05 0.05 83 1008.0
20200225110001 8 233 9.7 16.1 0.00 0.05 0.05 83 1008.2
20200225105502 8 237 8.0 16.1 0.00 0.05 0.05 83 1008.2
20200225105001 8 237 9.7 24.1 0.00 0.05 0.05 83 1008.4
20200225104503 8 238 9.7 24.1 0.00 0.05 0.05 83 1008.4
20200225104001 8 244 8.0 17.7 0.00 0.05 0.05 83 1008.4
20200225103501 8 249 8.0 12.9 0.00 0.05 0.05 83 1008.5
20200225103003 8 248 6.4 12.9 0.00 0.05 0.05 84 1008.6
20200225102501 8 244 4.8 9.7 0.00 0.05 0.05 84 1008.6
20200225102002 8 239 4.8 12.9 0.00 0.05 0.05 84 1008.6
20200225101502 8 235 4.8 12.9 0.00 0.05 0.05 83 1008.6
20200225101001 8 235 4.8 17.7 0.00 0.05 0.05 83 1008.7
20200225100501 8 238 6.4 17.7 0.00 0.05 0.05 83 1008.9
20200225100002 8 243 8.0 17.7 0.00 0.05 0.05 84 1009.0
20200225095502 8 239 6.4 17.7 0.00 0.05 0.05 84 1009.0
20200225095002 8 244 6.4 14.5 0.00 0.05 0.05 84 1008.8
20200225094501 7 246 8.0 24.1 0.00 0.05 0.05 84 1008.9
20200225094001 7 251 8.0 24.1 0.00 0.05 0.05 84 1008.8
20200225093502 7 249 9.7 16.1 0.03 0.05 0.05 84 1009.0
20200225093002 7 249 9.7 25.7 0.03 0.05 0.05 84 1008.9
20200225092502 7 256 8.0 25.7 0.03 0.05 0.05 85 1009.2
20200225092002 7 258 4.8 12.9 0.05 0.05 0.05 85 1009.2
20200225091002 7 254 4.8 8.0 0.05 0.05 0.05 85 1009.3
20200225090502 7 252 6.4 17.7 0.05 0.05 0.05 90 1009.4
20200225090002 7 248 6.4 17.7 0.05 0.05 0.05 90 1009.4
20200225085501 7 251 6.4 12.9 0.05 0.05 0.05 90 1009.4
20200225085002 7 247 6.4 12.9 0.03 0.03 0.03 90 1009.3
20200225084502 7 246 6.4 16.1 0.03 0.03 0.03 84 1009.4
20200225084002 7 245 8.0 16.1 0.03 0.03 0.03 89 1009.3
20200225083502 7 243 8.0 16.1 0.03 0.03 0.03 89 1009.4
20200225083002 7 245 8.0 14.5 0.00 0.00 0.00 81 1009.5
20200225082502 7 242 8.0 14.5 0.00 0.00 0.00 81 1009.3
20200225082002 7 242 8.0 14.5 0.00 0.00 0.00 80 1009.7
20200225081501 7 240 8.0 17.7 0.00 0.00 0.00 80 1009.5
20200225081002 7 241 8.0 17.7 0.00 0.00 0.00 79 1009.6
20200225080502 7 237 8.0 17.7 0.00 0.00 0.00 79 1009.6
20200225080002 7 227 8.0 20.9 0.00 0.00 0.00 79 1009.5
20200225075501 7 222 9.7 20.9 0.00 0.00 0.00 78 1009.6
20200225075002 7 222 9.7 22.5 0.00 0.00 0.00 78 1009.5
20200225074502 7 222 9.7 22.5 0.00 0.00 0.00 78 1009.4
20200225074001 7 221 9.7 17.7 0.00 0.00 0.00 78 1009.5
20200225073501 7 220 9.7 17.7 0.00 0.00 0.00 78 1009.5
20200225073003 7 218 11.3 19.3 0.00 0.00 0.00 77 1009.6
20200225072501 7 215 11.3 19.3 0.00 0.00 0.00 76 1009.5
20200225072003 8 217 11.3 19.3 0.00 0.00 0.00 75 1009.5
20200225071501 8 216 9.7 19.3 0.00 0.00 0.00 75 1009.8
20200225071002 8 214 11.3 19.3 0.00 0.00 0.00 74 1009.5
20200225070502 8 218 11.3 19.3 0.00 0.00 0.00 74 1009.5
20200225070001 8 227 11.3 19.3 0.00 0.00 0.00 74 1009.5
20200225065502 7 233 11.3 19.3 0.00 0.00 0.00 74 1009.8
20200225065001 7 238 9.7 20.9 0.00 0.00 0.00 74 1009.8
20200225064503 7 236 11.3 20.9 0.00 0.00 0.00 74 1009.8
20200225064002 7 235 9.7 20.9 0.00 0.00 0.00 75 1009.8
20200225063502 7 237 9.7 20.9 0.00 0.00 0.00 75 1010.0
20200225063002 7 238 9.7 20.9 0.00 0.00 0.00 75 1010.0
20200225062502 7 243 11.3 20.9 0.00 0.00 0.00 76 1010.0
20200225062001 7 242 12.9 20.9 0.00 0.00 0.00 76 1009.9
20200225061502 7 244 9.7 17.7 0.00 0.00 0.00 76 1009.8
20200225061002 7 248 11.3 24.1 0.00 0.00 0.00 76 1009.8
20200225060502 7 245 12.9 24.1 0.00 0.00 0.00 76 1009.9
20200225060002 7 242 11.3 24.1 0.00 0.00 0.00 76 1009.7
20200225055501 7 242 12.9 24.1 0.00 0.00 0.00 76 1009.9
20200225055002 7 239 12.9 24.1 0.00 0.00 0.00 76 1009.8
20200225054501 7 237 11.3 17.7 0.00 0.00 0.00 75 1010.1
20200225054002 8 241 12.9 25.7 0.00 0.00 0.00 75 1010.3
20200225053502 8 239 14.5 27.4 0.00 0.00 0.00 75 1010.3
20200225053002 8 237 16.1 27.4 0.00 0.00 0.00 75 1010.4
20200225052501 8 236 14.5 27.4 0.00 0.00 0.00 76 1010.2
20200225052003 8 236 12.9 27.4 0.00 0.00 0.00 77 1010.3
20200225051502 8 233 12.9 27.4 0.00 0.00 0.00 77 1010.0
20200225051003 8 232 12.9 19.3 0.00 0.00 0.00 76 1010.0
20200225050502 8 232 12.9 22.5 0.00 0.00 0.00 76 1010.2
20200225050001 8 234 14.5 27.4 0.00 0.00 0.00 76 1010.2
20200225045502 8 230 14.5 27.4 0.00 0.00 0.00 75 1010.4
20200225045002 8 231 11.3 22.5 0.00 0.00 0.00 75 1010.6
20200225044502 8 238 12.9 24.1 0.00 0.00 0.00 74 1010.5
20200225044003 8 237 12.9 24.1 0.00 0.00 0.00 73 1010.4
20200225043503 8 240 11.3 19.3 0.00 0.00 0.00 72 1010.6
20200225043002 8 241 11.3 20.9 0.00 0.00 0.00 72 1010.3
20200225042502 8 237 11.3 20.9 0.00 0.00 0.00 72 1010.5
20200225042002 8 234 11.3 20.9 0.00 0.00 0.00 72 1010.6
20200225041501 8 235 12.9 22.5 0.00 0.00 0.00 72 1010.3
20200225041001 8 230 12.9 22.5 0.00 0.00 0.00 73 1010.4
20200225040502 9 228 12.9 24.1 0.00 0.00 0.00 73 1010.3
20200225040003 9 227 12.9 24.1 0.00 0.00 0.00 73 1010.4
20200225035502 9 226 11.3 27.4 0.00 0.00 0.00 73 1010.5
20200225035001 9 226 11.3 27.4 0.00 0.00 0.00 74 1010.4
20200225034501 9 221 11.3 19.3 0.00 0.00 0.00 74 1010.4
20200225034002 9 220 14.5 27.4 0.00 0.00 0.00 73 1010.6
20200225033502 9 217 16.1 38.6 0.00 0.00 0.00 73 1010.6
20200225033002 9 215 16.1 38.6 0.00 0.00 0.00 73 1010.4
20200225032501 9 219 14.5 38.6 0.00 0.00 0.00 72 1010.6
20200225032003 10 221 14.5 24.1 0.00 0.00 0.00 71 1010.6
20200225031502 10 223 14.5 24.1 0.00 0.00 0.00 69 1010.5
20200225031003 10 226 12.9 24.1 0.00 0.00 0.00 69 1010.7
20200225030502 10 228 11.3 17.7 0.00 0.00 0.00 68 1010.6
20200225030003 10 229 9.7 17.7 0.00 0.00 0.00 68 1010.7
20200225025502 10 232 11.3 20.9 0.00 0.00 0.00 67 1010.7
20200225025002 10 232 11.3 20.9 0.00 0.00 0.00 65 1010.7
20200225024502 10 235 12.9 24.1 0.00 0.00 0.00 65 1010.6
20200225024003 10 233 16.1 27.4 0.00 0.00 0.00 64 1010.8
20200225023502 10 236 14.5 27.4 0.00 0.00 0.00 63 1010.6
20200225023001 10 235 11.3 24.1 0.00 0.00 0.00 64 1010.8
20200225022501 11 228 12.9 24.1 0.00 0.00 0.00 64 1010.7
20200225022002 11 225 11.3 25.7 0.00 0.00 0.00 65 1010.6
20200225021502 11 222 11.3 25.7 0.00 0.00 0.00 66 1010.7
20200225021003 11 224 11.3 20.9 0.00 0.00 0.00 67 1010.8
20200225020502 11 221 12.9 27.4 0.00 0.00 0.00 68 1010.8
20200225020002 11 218 11.3 27.4 0.00 0.00 0.00 68 1011.1
20200225015502 11 213 8.0 16.1 0.00 0.00 0.00 68 1010.8
20200225015002 11 209 8.0 14.5 0.00 0.00 0.00 69 1011.0
20200225014502 11 210 8.0 17.7 0.00 0.00 0.00 69 1011.3
20200225014002 11 213 9.7 20.9 0.00 0.00 0.00 69 1011.3
20200225013502 11 214 11.3 20.9 0.00 0.00 0.00 69 1011.3